Time;durP1;ratioP1;P1;durP2;ratioP2;P2;SDS_P1;SDS_P2;PMS_P1;PMS_P2;Temp;Humidity;BMP_temperature;BMP_pressure;BME280_temperature;BME280_humidity;BME280_pressure;Samples;Min_cycle;Max_cycle;Signal;HPM_P1;HPM_P2
2021/07/28 00:01:24;;;;;;;3.80;3.33;;;;;;;;;;5007559;28;20030;-83
2021/07/28 00:04:10;;;;;;;5.72;3.63;;;;;;;;;;4980689;28;20054;-83
2021/07/28 00:06:56;;;;;;;4.55;3.50;;;;;;;;;;4994375;28;20456;-83
2021/07/28 00:09:42;;;;;;;4.72;3.10;;;;;;;;;;5006734;28;20035;-83
2021/07/28 00:12:28;;;;;;;5.13;3.33;;;;;;;;;;4979136;28;20456;-82
2021/07/28 00:15:14;;;;;;;6.90;3.92;;;;;;;;;;4980278;28;20516;-83
2021/07/28 00:18:05;;;;;;;4.80;3.38;;;;;;;;;;4979787;28;20456;-82
2021/07/28 00:23:55;;;;;;;5.05;3.55;;;;;;;;;;4994060;28;20042;-83
2021/07/28 00:26:41;;;;;;;5.30;3.53;;;;;;;;;;4993410;28;20046;-83
2021/07/28 00:29:27;;;;;;;5.55;3.33;;;;;;;;;;5006270;28;20042;-83
2021/07/28 00:32:13;;;;;;;6.07;3.60;;;;;;;;;;4993778;28;20050;-83
2021/07/28 00:34:59;;;;;;;4.85;3.75;;;;;;;;;;4978948;28;20038;-83
2021/07/28 00:37:45;;;;;;;6.07;3.97;;;;;;;;;;4978576;28;20038;-83
2021/07/28 00:40:31;;;;;;;4.65;3.40;;;;;;;;;;4979538;28;20042;-83
2021/07/28 00:43:21;;;;;;;4.10;3.42;;;;;;;;;;4992360;28;20129;-83
2021/07/28 00:46:07;;;;;;;4.90;3.80;;;;;;;;;;4978756;28;20125;-83
2021/07/28 00:48:52;;;;;;;5.28;3.65;;;;;;;;;;4979361;28;20066;-82
2021/07/28 00:51:38;;;;;;;4.60;3.58;;;;;;;;;;4993473;28;20041;-82
2021/07/28 00:54:24;;;;;;;4.63;3.63;;;;;;;;;;4978548;28;20049;-82
2021/07/28 00:57:10;;;;;;;4.35;3.70;;;;;;;;;;5012118;28;20040;-82
2021/07/28 00:59:55;;;;;;;4.85;3.78;;;;;;;;;;5012087;28;20509;-82
2021/07/28 01:02:41;;;;;;;4.93;3.92;;;;;;;;;;5012173;28;20038;-83
2021/07/28 01:05:27;;;;;;;4.90;3.90;;;;;;;;;;5011656;28;20046;-82
2021/07/28 01:08:13;;;;;;;4.22;3.47;;;;;;;;;;5011678;28;20030;-82
2021/07/28 01:11:01;;;;;;;4.30;3.58;;;;;;;;;;5039056;28;20456;-83
2021/07/28 01:13:47;;;;;;;4.55;3.72;;;;;;;;;;5011914;28;20073;-82
2021/07/28 01:16:36;;;;;;;4.50;3.70;;;;;;;;;;4997841;28;20535;-82
2021/07/28 01:19:30;;;;;;;4.55;3.78;;;;;;;;;;5039090;28;20045;-83
2021/07/28 01:22:16;;;;;;;4.65;3.80;;;;;;;;;;5039209;28;20053;-83
2021/07/28 01:25:01;;;;;;;4.85;3.25;;;;;;;;;;5011703;28;20034;-83
2021/07/28 01:27:47;;;;;;;4.53;3.78;;;;;;;;;;5025135;28;20116;-82
2021/07/28 01:30:33;;;;;;;5.40;3.67;;;;;;;;;;5011677;28;20096;-83
2021/07/28 01:33:19;;;;;;;6.32;4.00;;;;;;;;;;5011668;28;20046;-82
2021/07/28 01:36:05;;;;;;;3.75;3.22;;;;;;;;;;5039387;28;20042;-83
2021/07/28 01:38:51;;;;;;;4.70;3.65;;;;;;;;;;5012161;28;20121;-83
2021/07/28 01:41:37;;;;;;;4.15;3.58;;;;;;;;;;5011507;28;20096;-83
2021/07/28 01:44:23;;;;;;;4.75;3.53;;;;;;;;;;5037030;28;20042;-83
2021/07/28 01:47:09;;;;;;;4.28;3.42;;;;;;;;;;5024495;28;20050;-83
2021/07/28 01:49:54;;;;;;;5.65;3.92;;;;;;;;;;5004827;28;20041;-82
2021/07/28 01:52:41;;;;;;;5.07;3.15;;;;;;;;;;5019365;28;20038;-82
2021/07/28 01:55:27;;;;;;;4.38;3.22;;;;;;;;;;5018753;28;20055;-82
2021/07/28 01:58:13;;;;;;;4.15;3.53;;;;;;;;;;5005337;28;20042;-83
2021/07/28 02:00:59;;;;;;;4.82;3.30;;;;;;;;;;5004737;28;20125;-83
2021/07/28 02:03:44;;;;;;;4.03;3.33;;;;;;;;;;5005894;28;20034;-83
2021/07/28 02:06:32;;;;;;;3.85;3.35;;;;;;;;;;5005092;28;20070;-83
2021/07/28 02:09:17;;;;;;;6.13;3.67;;;;;;;;;;5018956;28;20520;-83
2021/07/28 02:12:03;;;;;;;4.93;3.72;;;;;;;;;;5005619;28;20045;-82
2021/07/28 02:14:49;;;;;;;3.83;3.22;;;;;;;;;;5005261;28;20061;-82
2021/07/28 02:17:35;;;;;;;5.13;3.80;;;;;;;;;;5019124;28;20049;-82
2021/07/28 02:20:24;;;;;;;4.88;3.97;;;;;;;;;;4991732;28;20031;-83
2021/07/28 02:23:10;;;;;;;4.97;3.90;;;;;;;;;;5004156;28;20046;-83
2021/07/28 02:25:56;;;;;;;4.10;3.28;;;;;;;;;;5005723;28;20137;-83
2021/07/28 02:28:41;;;;;;;4.90;3.78;;;;;;;;;;5003354;28;20027;-83
2021/07/28 02:31:27;;;;;;;5.18;3.60;;;;;;;;;;5004788;28;20045;-82
2021/07/28 02:34:13;;;;;;;4.57;3.53;;;;;;;;;;5017664;28;20077;-82
2021/07/28 02:36:59;;;;;;;4.35;3.40;;;;;;;;;;5019130;28;20047;-82
2021/07/28 02:39:45;;;;;;;4.53;3.42;;;;;;;;;;5005597;28;20035;-82
2021/07/28 02:42:30;;;;;;;4.20;3.03;;;;;;;;;;5005506;28;20041;-83
2021/07/28 02:45:16;;;;;;;4.25;3.53;;;;;;;;;;5029779;28;20056;-82
2021/07/28 02:48:03;;;;;;;4.65;3.20;;;;;;;;;;4991371;28;20420;-83
2021/07/28 02:50:49;;;;;;;4.25;3.30;;;;;;;;;;4992115;28;20106;-83
2021/07/28 02:53:35;;;;;;;4.15;3.25;;;;;;;;;;4991069;28;20501;-83
2021/07/28 02:56:20;;;;;;;4.82;3.63;;;;;;;;;;4992525;28;20508;-83
2021/07/28 02:59:06;;;;;;;4.55;3.60;;;;;;;;;;4995345;28;20046;-83
2021/07/28 03:01:52;;;;;;;4.50;3.15;;;;;;;;;;4994651;28;20042;-83
2021/07/28 03:04:38;;;;;;;4.13;3.17;;;;;;;;;;4994958;28;20129;-82
2021/07/28 03:07:24;;;;;;;3.80;3.25;;;;;;;;;;5009177;28;20046;-83
2021/07/28 03:10:10;;;;;;;5.25;3.17;;;;;;;;;;4994629;28;20386;-83
2021/07/28 03:12:56;;;;;;;5.57;3.80;;;;;;;;;;5007879;28;20046;-83
2021/07/28 03:15:42;;;;;;;5.43;3.83;;;;;;;;;;5007745;28;20046;-82
2021/07/28 03:18:27;;;;;;;4.68;3.40;;;;;;;;;;5007811;28;20030;-83
2021/07/28 03:21:13;;;;;;;4.00;3.03;;;;;;;;;;5011878;28;20045;-83
2021/07/28 03:24:00;;;;;;;4.80;3.53;;;;;;;;;;5027160;28;20042;-83
2021/07/28 03:26:46;;;;;;;5.28;3.17;;;;;;;;;;5027074;28;20046;-83
2021/07/28 03:29:31;;;;;;;4.80;3.50;;;;;;;;;;5015201;28;20467;-83
2021/07/28 03:32:17;;;;;;;4.72;3.38;;;;;;;;;;5026485;28;20049;-82
2021/07/28 03:35:03;;;;;;;6.05;3.97;;;;;;;;;;5026977;28;20030;-82
2021/07/28 03:37:49;;;;;;;5.07;4.07;;;;;;;;;;5027972;28;20092;-83
2021/07/28 03:40:35;;;;;;;4.63;3.63;;;;;;;;;;5027105;28;20034;-83
2021/07/28 03:43:22;;;;;;;5.20;3.35;;;;;;;;;;5014755;28;20416;-83
2021/07/28 03:46:08;;;;;;;4.97;3.00;;;;;;;;;;5012970;28;20096;-83
2021/07/28 03:48:54;;;;;;;4.20;3.50;;;;;;;;;;5027640;28;20038;-83
2021/07/28 03:51:40;;;;;;;5.78;4.35;;;;;;;;;;5026509;28;20041;-83
2021/07/28 03:54:25;;;;;;;4.78;3.15;;;;;;;;;;5014021;28;20046;-83
2021/07/28 03:57:11;;;;;;;4.32;3.15;;;;;;;;;;5027644;28;20038;-83
2021/07/28 03:59:57;;;;;;;5.72;3.72;;;;;;;;;;5026583;28;20041;-83
2021/07/28 04:02:43;;;;;;;4.88;3.60;;;;;;;;;;5025943;28;20034;-83
2021/07/28 04:05:29;;;;;;;4.03;3.22;;;;;;;;;;5026078;28;20041;-83
2021/07/28 04:08:14;;;;;;;5.35;3.90;;;;;;;;;;5026297;28;20030;-83
2021/07/28 04:11:01;;;;;;;3.58;3.00;;;;;;;;;;5014312;28;20096;-82
2021/07/28 04:13:47;;;;;;;4.93;3.53;;;;;;;;;;5019774;28;20054;-83
2021/07/28 04:16:33;;;;;;;4.85;3.55;;;;;;;;;;5007117;28;20046;-83
2021/07/28 04:19:18;;;;;;;5.50;3.60;;;;;;;;;;5007658;28;20116;-83
2021/07/28 04:22:04;;;;;;;4.53;3.42;;;;;;;;;;5007431;28;20046;-83
2021/07/28 04:24:50;;;;;;;4.65;3.42;;;;;;;;;;4994202;28;20046;-83
2021/07/28 04:27:37;;;;;;;4.97;3.80;;;;;;;;;;5007199;28;20050;-82
2021/07/28 04:30:23;;;;;;;4.72;3.70;;;;;;;;;;5007595;28;20422;-83
2021/07/28 04:33:09;;;;;;;4.18;3.33;;;;;;;;;;5007088;28;20057;-83
2021/07/28 04:35:54;;;;;;;4.95;3.35;;;;;;;;;;4994018;28;20035;-83
2021/07/28 04:38:40;;;;;;;4.47;3.63;;;;;;;;;;5007197;28;20038;-83
2021/07/28 04:41:27;;;;;;;6.05;3.53;;;;;;;;;;5007061;28;20046;-83
2021/07/28 04:44:13;;;;;;;5.10;3.95;;;;;;;;;;4993868;28;20523;-83
2021/07/28 04:46:59;;;;;;;4.57;3.40;;;;;;;;;;5007365;28;20049;-83
2021/07/28 04:49:45;;;;;;;4.80;3.53;;;;;;;;;;5006693;28;20050;-83
2021/07/28 04:52:31;;;;;;;4.63;3.80;;;;;;;;;;5006864;28;20034;-83
2021/07/28 04:55:16;;;;;;;4.20;3.38;;;;;;;;;;4993448;28;20046;-83
2021/07/28 04:58:03;;;;;;;4.88;3.40;;;;;;;;;;4978124;28;20088;-83
2021/07/28 05:00:50;;;;;;;5.35;3.97;;;;;;;;;;4993595;28;20096;-83
2021/07/28 05:03:35;;;;;;;5.22;3.45;;;;;;;;;;5006599;28;20042;-83
2021/07/28 05:06:21;;;;;;;4.85;3.78;;;;;;;;;;4992368;28;20054;-83
2021/07/28 05:09:08;;;;;;;4.57;3.05;;;;;;;;;;5019379;28;20047;-83
2021/07/28 05:11:54;;;;;;;4.30;3.28;;;;;;;;;;5018775;28;20476;-83
2021/07/28 05:14:40;;;;;;;5.07;3.67;;;;;;;;;;5019173;28;20045;-83
2021/07/28 05:17:26;;;;;;;4.78;3.72;;;;;;;;;;5004865;28;20045;-83
2021/07/28 05:20:12;;;;;;;4.38;3.38;;;;;;;;;;5015868;28;20505;-82
2021/07/28 05:22:58;;;;;;;4.10;3.28;;;;;;;;;;5018607;28;20038;-83
2021/07/28 05:25:43;;;;;;;3.67;2.92;;;;;;;;;;5032400;28;20042;-83
2021/07/28 05:28:29;;;;;;;4.78;3.20;;;;;;;;;;5017721;28;20104;-82
2021/07/28 05:31:15;;;;;;;6.45;4.50;;;;;;;;;;5006189;28;20042;-82
2021/07/28 05:34:01;;;;;;;4.90;3.20;;;;;;;;;;5031641;28;20489;-83
2021/07/28 05:36:47;;;;;;;4.35;3.00;;;;;;;;;;4991212;28;20046;-82
2021/07/28 05:39:33;;;;;;;4.88;3.40;;;;;;;;;;5019834;28;20049;-83
2021/07/28 05:42:19;;;;;;;4.40;3.30;;;;;;;;;;5019389;28;20046;-84
2021/07/28 05:45:05;;;;;;;5.00;3.25;;;;;;;;;;5006502;28;20057;-83
2021/07/28 05:47:51;;;;;;;3.92;2.88;;;;;;;;;;5004530;28;20501;-83
2021/07/28 05:50:38;;;;;;;4.03;2.83;;;;;;;;;;4991680;28;20096;-82
2021/07/28 05:53:23;;;;;;;5.53;3.08;;;;;;;;;;5006736;28;20106;-82
2021/07/28 05:56:09;;;;;;;4.88;3.15;;;;;;;;;;5005655;28;20042;-82
2021/07/28 05:58:55;;;;;;;4.70;3.22;;;;;;;;;;5005099;28;20074;-82
2021/07/28 06:01:41;;;;;;;4.43;2.90;;;;;;;;;;5024434;28;20061;-82
2021/07/28 06:04:27;;;;;;;3.67;2.75;;;;;;;;;;5010980;28;20037;-82
2021/07/28 06:07:13;;;;;;;4.13;2.97;;;;;;;;;;5039403;28;20053;-82
2021/07/28 06:09:58;;;;;;;5.25;2.80;;;;;;;;;;5025767;28;20042;-82
2021/07/28 06:12:44;;;;;;;4.72;3.22;;;;;;;;;;5023878;28;20061;-82
2021/07/28 06:15:30;;;;;;;4.22;2.72;;;;;;;;;;5024551;28;20038;-83
2021/07/28 06:18:16;;;;;;;3.67;2.65;;;;;;;;;;5024674;28;20044;-82
2021/07/28 06:21:01;;;;;;;3.42;2.60;;;;;;;;;;5024855;28;20478;-82
2021/07/28 06:23:48;;;;;;;4.97;2.88;;;;;;;;;;5024670;28;20397;-81
2021/07/28 06:26:33;;;;;;;6.32;2.70;;;;;;;;;;5010619;28;20106;-82
2021/07/28 06:29:21;;;;;;;4.85;2.83;;;;;;;;;;5012252;28;20520;-82
2021/07/28 06:32:08;;;;;;;4.47;2.78;;;;;;;;;;5015098;28;20038;-82
2021/07/28 06:34:53;;;;;;;3.92;2.85;;;;;;;;;;5027863;28;20046;-82
2021/07/28 06:37:40;;;;;;;3.78;2.70;;;;;;;;;;5042624;28;20053;-81
2021/07/28 06:40:25;;;;;;;4.70;2.50;;;;;;;;;;5041480;28;20037;-82
2021/07/28 06:43:11;;;;;;;3.90;2.30;;;;;;;;;;5001115;28;20052;-81
2021/07/28 06:46:00;;;;;;;3.83;2.17;;;;;;;;;;5013919;28;20038;-81
2021/07/28 06:48:46;;;;;;;4.18;2.40;;;;;;;;;;5042420;28;20100;-81
2021/07/28 06:51:32;;;;;;;4.85;2.53;;;;;;;;;;5027975;28;20088;-82
2021/07/28 06:54:18;;;;;;;5.78;2.60;;;;;;;;;;5028485;28;20065;-82
2021/07/28 06:57:03;;;;;;;5.15;2.42;;;;;;;;;;5021984;28;20038;-81
2021/07/28 06:59:50;;;;;;;4.10;2.13;;;;;;;;;;5027451;28;20485;-82
2021/07/28 07:02:36;;;;;;;4.07;2.47;;;;;;;;;;5011583;28;20050;-82
2021/07/28 07:05:22;;;;;;;5.50;3.22;;;;;;;;;;5001392;28;20140;-82
2021/07/28 07:08:09;;;;;;;2.83;1.85;;;;;;;;;;4998369;28;20038;-82
2021/07/28 07:10:55;;;;;;;3.25;1.92;;;;;;;;;;5021016;28;20050;-82
2021/07/28 07:13:41;;;;;;;3.78;2.35;;;;;;;;;;5008498;28;20587;-82
2021/07/28 07:16:27;;;;;;;3.30;2.17;;;;;;;;;;5021408;28;20046;-82
2021/07/28 07:19:12;;;;;;;5.85;2.20;;;;;;;;;;5029075;28;20041;-82
2021/07/28 07:21:58;;;;;;;5.43;2.60;;;;;;;;;;5013633;28;20104;-82
2021/07/28 07:24:44;;;;;;;3.70;2.40;;;;;;;;;;5013448;28;20041;-82
2021/07/28 07:27:30;;;;;;;4.95;2.30;;;;;;;;;;5013898;28;20583;-82
2021/07/28 07:30:16;;;;;;;4.80;2.33;;;;;;;;;;5027697;28;20042;-82
2021/07/28 07:36:10;;;;;;;3.65;2.40;;;;;;;;;;5014178;28;20050;-82
2021/07/28 07:38:56;;;;;;;3.65;2.08;;;;;;;;;;5013785;28;20042;-82
2021/07/28 07:41:42;;;;;;;3.90;2.00;;;;;;;;;;5026736;28;20046;-82
2021/07/28 07:44:28;;;;;;;3.47;2.50;;;;;;;;;;5013913;28;20041;-82
2021/07/28 07:47:14;;;;;;;3.38;2.50;;;;;;;;;;5027044;28;20605;-82
2021/07/28 07:50:00;;;;;;;3.13;2.10;;;;;;;;;;5026983;28;20034;-83
2021/07/28 07:52:45;;;;;;;3.50;2.00;;;;;;;;;;5013103;28;20053;-82
2021/07/28 07:55:31;;;;;;;4.00;1.88;;;;;;;;;;5020780;28;20050;-82
2021/07/28 07:58:17;;;;;;;3.60;2.13;;;;;;;;;;5021164;28;20045;-83
2021/07/28 08:01:09;;;;;;;4.30;2.00;;;;;;;;;;5021259;28;20038;-83
2021/07/28 08:03:55;;;;;;;3.58;2.45;;;;;;;;;;5007559;28;20564;-82
2021/07/28 08:06:41;;;;;;;6.15;2.58;;;;;;;;;;5020766;28;20034;-82
2021/07/28 08:09:26;;;;;;;3.47;2.17;;;;;;;;;;5007564;28;20064;-82
2021/07/28 08:12:12;;;;;;;3.10;2.33;;;;;;;;;;5008167;28;20031;-83
2021/07/28 08:14:58;;;;;;;3.28;2.03;;;;;;;;;;5020602;28;20081;-83
2021/07/28 08:17:44;;;;;;;4.25;2.45;;;;;;;;;;5021038;28;20038;-83
2021/07/28 08:20:31;;;;;;;3.35;1.92;;;;;;;;;;5020147;28;20050;-83
2021/07/28 08:23:16;;;;;;;3.92;2.03;;;;;;;;;;5007298;28;20468;-83
2021/07/28 08:26:02;;;;;;;3.58;1.90;;;;;;;;;;5021068;28;20042;-83
2021/07/28 08:28:48;;;;;;;5.30;1.88;;;;;;;;;;5020835;28;20049;-83
2021/07/28 08:31:34;;;;;;;4.68;2.13;;;;;;;;;;5020634;28;20042;-83
2021/07/28 08:34:19;;;;;;;2.78;1.88;;;;;;;;;;5020338;28;20125;-83
2021/07/28 08:37:05;;;;;;;3.13;1.90;;;;;;;;;;5020143;28;20061;-83
2021/07/28 08:39:51;;;;;;;4.03;1.95;;;;;;;;;;5018567;28;20042;-83
2021/07/28 08:42:37;;;;;;;3.00;1.85;;;;;;;;;;5020565;28;20035;-83
2021/07/28 08:45:23;;;;;;;3.30;2.20;;;;;;;;;;5005622;28;20038;-83
2021/07/28 08:48:08;;;;;;;3.35;2.10;;;;;;;;;;5020119;28;20046;-83
2021/07/28 08:50:55;;;;;;;3.58;2.17;;;;;;;;;;5016640;28;20085;-82
2021/07/28 08:53:40;;;;;;;2.50;1.88;;;;;;;;;;5006949;28;20034;-83
2021/07/28 08:56:26;;;;;;;2.47;1.65;;;;;;;;;;5006925;28;20532;-83
2021/07/28 08:59:28;;;;;;;3.70;2.08;;;;;;;;;;5007077;28;20039;-83
2021/07/28 09:02:13;;;;;;;3.15;1.73;;;;;;;;;;5006468;28;20038;-83
2021/07/28 09:04:59;;;;;;;4.25;1.85;;;;;;;;;;5019620;28;20042;-83
2021/07/28 09:07:52;;;;;;;2.03;1.50;;;;;;;;;;5006420;28;20508;-83
2021/07/28 09:10:38;;;;;;;3.47;1.50;;;;;;;;;;5006024;28;20030;-83
2021/07/28 09:13:27;;;;;;;2.63;1.55;;;;;;;;;;5005496;28;20046;-83
2021/07/28 09:16:15;;;;;;;2.60;1.48;;;;;;;;;;4992652;28;20065;-83
2021/07/28 09:19:01;;;;;;;2.55;1.55;;;;;;;;;;5006260;28;20541;-83
2021/07/28 09:21:47;;;;;;;2.42;1.40;;;;;;;;;;5020095;28;20038;-83
2021/07/28 09:24:32;;;;;;;2.53;1.65;;;;;;;;;;5019039;28;20042;-83
2021/07/28 09:27:41;;;;;;;2.67;1.52;;;;;;;;;;5019987;28;20100;-83
2021/07/28 09:30:27;;;;;;;1.60;1.13;;;;;;;;;;5018471;28;20411;-83
2021/07/28 09:33:12;;;;;;;2.58;1.20;;;;;;;;;;4992224;28;20057;-83
2021/07/28 09:36:01;;;;;;;3.53;1.50;;;;;;;;;;5005940;28;20046;-83
2021/07/28 09:38:47;;;;;;;2.50;1.30;;;;;;;;;;4992833;28;20046;-83
2021/07/28 09:41:37;;;;;;;2.92;1.50;;;;;;;;;;4992258;28;20050;-83
2021/07/28 09:44:28;;;;;;;3.38;1.30;;;;;;;;;;5019802;28;20415;-83
2021/07/28 09:47:18;;;;;;;2.60;1.48;;;;;;;;;;5011560;28;20070;-83
2021/07/28 09:50:07;;;;;;;3.05;1.50;;;;;;;;;;4997731;28;20132;-83
2021/07/28 09:53:08;;;;;;;3.40;1.63;;;;;;;;;;5012085;28;20038;-83
2021/07/28 09:55:54;;;;;;;2.55;1.02;;;;;;;;;;4997055;28;20070;-83
2021/07/28 09:58:40;;;;;;;2.30;1.10;;;;;;;;;;5011512;28;20424;-83
2021/07/28 10:01:27;;;;;;;2.45;1.25;;;;;;;;;;5011539;28;20428;-83
2021/07/28 10:04:15;;;;;;;2.72;1.65;;;;;;;;;;5010960;28;20100;-83
2021/07/28 10:07:02;;;;;;;2.30;1.20;;;;;;;;;;5024983;28;20036;-83
2021/07/28 10:10:08;;;;;;;1.95;1.10;;;;;;;;;;5024025;28;20041;-83
2021/07/28 10:12:54;;;;;;;4.00;1.38;;;;;;;;;;5011704;28;20056;-83
2021/07/28 10:15:40;;;;;;;2.50;1.30;;;;;;;;;;5024723;28;20045;-83
2021/07/28 10:18:26;;;;;;;2.88;1.30;;;;;;;;;;5024015;28;20508;-83
2021/07/28 10:21:12;;;;;;;1.80;1.30;;;;;;;;;;5036875;28;20416;-83
2021/07/28 10:23:57;;;;;;;2.13;1.08;;;;;;;;;;5024894;28;20049;-83
2021/07/28 10:26:45;;;;;;;3.28;1.30;;;;;;;;;;5024910;28;20066;-83
2021/07/28 10:29:31;;;;;;;2.58;0.95;;;;;;;;;;5011966;28;20034;-83
2021/07/28 10:32:33;;;;;;;2.25;1.10;;;;;;;;;;5024665;28;20530;-83
2021/07/28 10:35:27;;;;;;;2.45;1.27;;;;;;;;;;5024104;28;20068;-82
2021/07/28 10:38:19;;;;;;;2.63;1.13;;;;;;;;;;5018254;28;20042;-83
2021/07/28 10:41:09;;;;;;;2.15;0.90;;;;;;;;;;4991454;28;20092;-83
2021/07/28 10:44:07;;;;;;;2.30;1.27;;;;;;;;;;4990169;28;20050;-82
2021/07/28 10:46:53;;;;;;;4.00;1.23;;;;;;;;;;4992066;28;20607;-83
2021/07/28 10:49:39;;;;;;;3.08;1.10;;;;;;;;;;5019072;28;20129;-82
2021/07/28 10:52:38;;;;;;;5.68;1.67;;;;;;;;;;5019257;28;20031;-83
2021/07/28 10:55:30;;;;;;;2.90;1.40;;;;;;;;;;4990593;28;20058;-82
2021/07/28 10:58:25;;;;;;;2.63;1.17;;;;;;;;;;4991290;28;20128;-82
2021/07/28 11:01:11;;;;;;;3.20;1.30;;;;;;;;;;4991113;28;20039;-83
2021/07/28 11:04:22;;;;;;;2.88;1.40;;;;;;;;;;4991048;28;20524;-82
2021/07/28 11:07:08;;;;;;;4.38;1.35;;;;;;;;;;5005037;28;20030;-82
2021/07/28 11:10:04;;;;;;;2.88;1.20;;;;;;;;;;4990033;28;20037;-82
2021/07/28 11:12:53;;;;;;;5.78;1.10;;;;;;;;;;4991723;28;20081;-82
2021/07/28 11:15:39;;;;;;;1.92;1.00;;;;;;;;;;5003911;28;20092;-82
2021/07/28 11:18:38;;;;;;;3.47;0.88;;;;;;;;;;4992919;28;20043;-82
2021/07/28 11:21:33;;;;;;;5.03;1.30;;;;;;;;;;5009044;28;20038;-80
2021/07/28 11:24:20;;;;;;;1.92;0.90;;;;;;;;;;4993931;28;20046;-80
2021/07/28 11:27:10;;;;;;;4.57;1.33;;;;;;;;;;5007851;28;20520;-80
2021/07/28 11:30:12;;;;;;;2.25;1.10;;;;;;;;;;4994351;28;20527;-81
2021/07/28 11:33:14;;;;;;;4.10;1.13;;;;;;;;;;5010476;28;20030;-80
2021/07/28 11:36:00;;;;;;;2.33;1.00;;;;;;;;;;5008547;28;20428;-80
2021/07/28 11:38:46;;;;;;;3.70;1.90;;;;;;;;;;4994547;28;20088;-80
2021/07/28 11:41:32;;;;;;;3.50;1.35;;;;;;;;;;4994839;28;20031;-81
2021/07/28 11:44:19;;;;;;;3.13;1.20;;;;;;;;;;4995295;28;20065;-81
2021/07/28 11:46:55;;;;;;;3.00;1.00;;;;;;;;;;5017011;28;20525;-81
2021/07/28 11:49:25;;;;;;;1.95;1.05;;;;;;;;;;4994209;28;20038;-80
2021/07/28 11:51:51;;;;;;;3.05;1.08;;;;;;;;;;5029420;28;20030;-80
2021/07/28 11:54:17;;;;;;;3.05;1.33;;;;;;;;;;5023846;28;20044;-81
2021/07/28 11:56:48;;;;;;;4.32;2.13;;;;;;;;;;5032328;28;20053;-80
2021/07/28 11:59:14;;;;;;;7.68;3.40;;;;;;;;;;4999710;28;20065;-81
2021/07/28 12:01:47;;;;;;;8.45;5.32;;;;;;;;;;5047560;28;20041;-80
2021/07/28 12:04:19;;;;;;;5.97;2.20;;;;;;;;;;5028336;28;20412;-80
2021/07/28 12:06:45;;;;;;;4.53;1.98;;;;;;;;;;5013227;28;20041;-80
2021/07/28 12:09:21;;;;;;;3.88;1.58;;;;;;;;;;4996005;28;20404;-81
2021/07/28 12:11:47;;;;;;;3.15;1.80;;;;;;;;;;4996597;28;20026;-80
2021/07/28 12:14:30;;;;;;;2.75;1.30;;;;;;;;;;5012326;28;20048;-80
2021/07/28 12:16:58;;;;;;;3.90;1.30;;;;;;;;;;4995876;28;20049;-80
2021/07/28 12:19:24;;;;;;;3.70;1.48;;;;;;;;;;5002870;28;20069;-81
2021/07/28 12:21:56;;;;;;;1.90;1.08;;;;;;;;;;5015701;28;20175;-80
2021/07/28 12:24:34;;;;;;;;;;;;;;;;;;5032361;28;20046;-80
2021/07/28 12:27:24;;;;;;;3.78;1.40;;;;;;;;;;5018766;28;19964;-80
2021/07/28 12:29:59;;;;;;;3.15;1.15;;;;;;;;;;4991666;28;20058;-81
2021/07/28 12:32:35;;;;;;;3.60;1.40;;;;;;;;;;4992536;28;20038;-80
2021/07/28 12:35:20;;;;;;;4.20;1.35;;;;;;;;;;5008263;28;20412;-81
2021/07/28 12:37:46;;;;;;;2.80;1.00;;;;;;;;;;4975710;28;20054;-80
2021/07/28 12:40:12;;;;;;;4.05;1.20;;;;;;;;;;5022481;28;20037;-81
2021/07/28 12:42:37;;;;;;;3.97;1.42;;;;;;;;;;4991969;28;20034;-81
2021/07/28 12:45:09;;;;;;;3.58;1.35;;;;;;;;;;5010954;28;20034;-80
2021/07/28 12:47:35;;;;;;;1.63;0.70;;;;;;;;;;5008408;28;20068;-81
2021/07/28 12:50:00;;;;;;;4.20;1.15;;;;;;;;;;5008737;28;20034;-81
2021/07/28 12:52:26;;;;;;;4.75;1.35;;;;;;;;;;4991916;28;20456;-81
2021/07/28 12:54:51;;;;;;;3.95;1.13;;;;;;;;;;5029639;28;20095;-80
2021/07/28 12:57:17;;;;;;;4.80;1.10;;;;;;;;;;4999940;28;20061;-80
2021/07/28 12:59:42;;;;;;;4.18;1.60;;;;;;;;;;5027745;28;20496;-80
2021/07/28 13:02:08;;;;;;;7.75;3.88;;;;;;;;;;4995461;28;20404;-80
2021/07/28 13:04:34;;;;;;;5.03;2.92;;;;;;;;;;5011502;28;20400;-80
2021/07/28 13:07:10;;;;;;;8.82;5.72;;;;;;;;;;5011121;28;20080;-80
2021/07/28 13:09:36;;;;;;;4.75;1.95;;;;;;;;;;5029029;28;20044;-80
2021/07/28 13:12:01;;;;;;;10.07;5.03;;;;;;;;;;5011056;28;20120;-81
2021/07/28 13:14:26;;;;;;;4.97;2.40;;;;;;;;;;4995630;28;20038;-80
2021/07/28 13:16:52;;;;;;;3.63;1.27;;;;;;;;;;5007608;28;20112;-81
2021/07/28 13:19:18;;;;;;;2.42;1.00;;;;;;;;;;4991277;28;20489;-81
2021/07/28 13:21:43;;;;;;;3.03;1.15;;;;;;;;;;5010899;28;20049;-80
2021/07/28 13:24:08;;;;;;;3.10;1.08;;;;;;;;;;5007888;28;20554;-80
2021/07/28 13:26:34;;;;;;;4.13;1.10;;;;;;;;;;5024220;28;20497;-81
2021/07/28 13:29:00;;;;;;;4.65;1.67;;;;;;;;;;5024449;28;20038;-80
2021/07/28 13:31:26;;;;;;;2.28;0.90;;;;;;;;;;4991177;28;20038;-80
2021/07/28 13:33:51;;;;;;;2.25;1.00;;;;;;;;;;5024158;28;20046;-80
2021/07/28 13:36:17;;;;;;;3.83;1.20;;;;;;;;;;5007539;28;20042;-80
2021/07/28 13:38:44;;;;;;;2.00;0.77;;;;;;;;;;5023872;28;20034;-81
2021/07/28 13:41:10;;;;;;;3.83;1.13;;;;;;;;;;5017890;28;20053;-81
2021/07/28 13:43:35;;;;;;;2.72;1.10;;;;;;;;;;5010922;28;20103;-80
2021/07/28 13:46:00;;;;;;;2.65;1.10;;;;;;;;;;5010277;28;20038;-80
2021/07/28 13:48:27;;;;;;;2.30;1.17;;;;;;;;;;5025243;28;20037;-80
2021/07/28 13:50:52;;;;;;;2.65;0.90;;;;;;;;;;5030404;28;20077;-78
2021/07/28 13:53:17;;;;;;;2.85;1.10;;;;;;;;;;5030172;28;20498;-79
2021/07/28 13:55:43;;;;;;;2.65;1.10;;;;;;;;;;4997334;28;20468;-78
2021/07/28 13:58:09;;;;;;;2.53;1.05;;;;;;;;;;5030768;28;20037;-78
2021/07/28 14:00:35;;;;;;;6.60;4.15;;;;;;;;;;5030203;28;20044;-78
2021/07/28 14:03:00;;;;;;;13.40;9.15;;;;;;;;;;5014024;28;20474;-79
2021/07/28 14:05:26;;;;;;;8.07;3.90;;;;;;;;;;5030100;28;20045;-79
2021/07/28 14:07:51;;;;;;;5.22;2.17;;;;;;;;;;5030352;28;20034;-79
2021/07/28 14:10:17;;;;;;;6.10;2.42;;;;;;;;;;5030131;28;20044;-79
2021/07/28 14:12:42;;;;;;;11.45;7.32;;;;;;;;;;5030309;28;20084;-78
2021/07/28 14:15:08;;;;;;;6.35;3.55;;;;;;;;;;4997905;28;20496;-78
2021/07/28 14:17:34;;;;;;;7.68;4.55;;;;;;;;;;5007095;28;20081;-78
2021/07/28 14:20:00;;;;;;;6.97;3.78;;;;;;;;;;4974924;28;20046;-79
2021/07/28 14:22:25;;;;;;;6.30;3.63;;;;;;;;;;4990717;28;20033;-79
2021/07/28 14:24:50;;;;;;;8.82;3.90;;;;;;;;;;4974466;28;20034;-78
2021/07/28 14:27:16;;;;;;;10.75;5.65;;;;;;;;;;4990545;28;20038;-78
2021/07/28 14:29:41;;;;;;;7.55;4.47;;;;;;;;;;5007235;28;20061;-77
2021/07/28 14:32:07;;;;;;;6.07;3.60;;;;;;;;;;5007194;28;20038;-78
2021/07/28 14:34:33;;;;;;;5.38;2.78;;;;;;;;;;4974475;28;20037;-78
2021/07/28 14:36:59;;;;;;;5.88;2.97;;;;;;;;;;4990586;28;20034;-78
2021/07/28 14:39:24;;;;;;;8.20;2.40;;;;;;;;;;4990306;28;20046;-79
2021/07/28 14:41:50;;;;;;;3.63;1.95;;;;;;;;;;5005665;28;20034;-79
2021/07/28 14:44:15;;;;;;;4.43;2.67;;;;;;;;;;5010384;28;20046;-79
2021/07/28 14:46:42;;;;;;;4.47;1.95;;;;;;;;;;5026600;28;20034;-78
2021/07/28 14:49:07;;;;;;;3.95;1.75;;;;;;;;;;5030099;28;20090;-79
2021/07/28 14:51:34;;;;;;;4.18;1.90;;;;;;;;;;5014306;28;20034;-78
2021/07/28 14:53:59;;;;;;;4.68;1.77;;;;;;;;;;5022336;28;20496;-79
2021/07/28 14:56:25;;;;;;;3.05;1.63;;;;;;;;;;5030423;28;20026;-78
2021/07/28 14:58:50;;;;;;;3.72;1.58;;;;;;;;;;5030605;28;20034;-78
2021/07/28 15:01:16;;;;;;;3.22;1.38;;;;;;;;;;5030211;28;20037;-79
2021/07/28 15:03:42;;;;;;;4.65;1.27;;;;;;;;;;5013629;28;20436;-79
2021/07/28 15:06:07;;;;;;;2.17;1.15;;;;;;;;;;5014053;28;20038;-79
2021/07/28 15:08:34;;;;;;;4.43;2.30;;;;;;;;;;5011070;28;20046;-78
2021/07/28 15:11:05;;;;;;;3.85;1.45;;;;;;;;;;5012869;28;20042;-78
2021/07/28 15:13:31;;;;;;;2.97;1.42;;;;;;;;;;4993719;28;20050;-79
2021/07/28 15:15:57;;;;;;;2.72;1.23;;;;;;;;;;5010044;28;20118;-79
2021/07/28 15:18:23;;;;;;;2.03;1.17;;;;;;;;;;4993833;28;20133;-79
2021/07/28 15:20:48;;;;;;;3.92;1.67;;;;;;;;;;4993599;28;20038;-78
2021/07/28 15:23:15;;;;;;;2.42;1.02;;;;;;;;;;5009999;28;20077;-79
2021/07/28 15:25:40;;;;;;;3.05;1.15;;;;;;;;;;4993970;28;20110;-79
2021/07/28 15:28:05;;;;;;;3.83;1.00;;;;;;;;;;4994077;28;20070;-79
2021/07/28 15:30:31;;;;;;;2.50;1.25;;;;;;;;;;5010139;28;20037;-78
2021/07/28 15:32:56;;;;;;;3.00;1.40;;;;;;;;;;5026364;28;20034;-79
2021/07/28 15:35:22;;;;;;;2.90;1.00;;;;;;;;;;4993126;28;20046;-78
2021/07/28 15:37:47;;;;;;;2.65;1.17;;;;;;;;;;5026050;28;20041;-79
2021/07/28 15:40:13;;;;;;;2.40;1.10;;;;;;;;;;5011499;28;20030;-79
2021/07/28 15:42:44;;;;;;;3.35;1.45;;;;;;;;;;4996979;28;20038;-78
2021/07/28 15:45:15;;;;;;;3.47;1.45;;;;;;;;;;5013284;28;20508;-79
2021/07/28 15:47:41;;;;;;;2.63;1.42;;;;;;;;;;5021914;28;20053;-78
2021/07/28 15:50:08;;;;;;;2.80;1.17;;;;;;;;;;5032699;28;20037;-79
2021/07/28 15:52:34;;;;;;;3.05;1.13;;;;;;;;;;4999582;28;20038;-78
2021/07/28 15:54:59;;;;;;;2.20;1.30;;;;;;;;;;5013240;28;20099;-79
2021/07/28 15:57:25;;;;;;;2.72;1.10;;;;;;;;;;5012813;28;20427;-79
2021/07/28 15:59:51;;;;;;;1.95;1.10;;;;;;;;;;5012894;28;20404;-79
2021/07/28 16:02:16;;;;;;;4.05;1.40;;;;;;;;;;4996542;28;20049;-79
2021/07/28 16:04:41;;;;;;;3.97;1.10;;;;;;;;;;4995013;28;20038;-79
2021/07/28 16:07:07;;;;;;;2.05;1.20;;;;;;;;;;5025273;28;20038;-79
2021/07/28 16:09:32;;;;;;;2.42;1.27;;;;;;;;;;4993033;28;20041;-79
2021/07/28 16:11:58;;;;;;;2.20;1.35;;;;;;;;;;5009119;28;20049;-78